Portada
METAR-TAF:

METAR-TAF

Aeroports :

Millington, Tennessee, Estats Units d'Amèrica

latitud: 35-21-24N, longitud: 089-52-13W, altitud: 98 m

Observació

L'informe es va fer fa 27 minuts, a les 15:50 UTC
Vent 4 kt del Est
Temperatura 24°C
Humitat 41%
Pressió 1024 hPa
Visibilitat: 16.1 km
Cel clar

METAR: KNQA 011550Z 08004KT 10SM CLR 24/10 A3023

Hora: 11:17 (16:17 UTC)


TAF: manca

Observacions i pronòstics meteorològics de més de 4000 aeroports (METAR i TAF).

Les estacions disponibles són els punts grocs i vermells al mapa.

Posi el ratolí al punt desitjat per veure el nom de l'estació.

Feu clic per veure les observacions i els pronòstics meteorològics.

Per canviar el mapa: feu clic els botons verds amb una creu de color negre per apropar; al botó verd amb un guió per allunyar la imatge; o en les fletxes verdes per a mapes adjacents.


METAR-TAF: